sensor_id;sensor_type;location;lat;lon;timestamp;P1;durP1;ratioP1;P2;durP2;ratioP2
60582;SDS011;46415;47.536;19.066;2024-01-15T00:01:05;42.10;;;22.50;;
60582;SDS011;46415;47.536;19.066;2024-01-15T00:04:08;46.70;;;21.40;;
60582;SDS011;46415;47.536;19.066;2024-01-15T00:07:11;40.88;;;20.98;;
60582;SDS011;46415;47.536;19.066;2024-01-15T00:10:14;41.05;;;21.85;;
60582;SDS011;46415;47.536;19.066;2024-01-15T00:13:17;42.38;;;22.27;;
60582;SDS011;46415;47.536;19.066;2024-01-15T00:16:20;45.85;;;21.98;;
60582;SDS011;46415;47.536;19.066;2024-01-15T00:19:23;43.20;;;22.35;;
60582;SDS011;46415;47.536;19.066;2024-01-15T00:22:27;40.53;;;21.70;;
60582;SDS011;46415;47.536;19.066;2024-01-15T00:25:30;41.45;;;21.70;;
60582;SDS011;46415;47.536;19.066;2024-01-15T00:28:33;44.00;;;22.08;;
60582;SDS011;46415;47.536;19.066;2024-01-15T00:31:35;43.72;;;23.12;;
60582;SDS011;46415;47.536;19.066;2024-01-15T00:34:39;41.55;;;21.75;;
60582;SDS011;46415;47.536;19.066;2024-01-15T00:37:41;38.55;;;21.60;;
60582;SDS011;46415;47.536;19.066;2024-01-15T00:40:45;41.35;;;22.05;;
60582;SDS011;46415;47.536;19.066;2024-01-15T00:43:47;40.55;;;21.27;;
60582;SDS011;46415;47.536;19.066;2024-01-15T00:46:53;41.28;;;21.10;;
60582;SDS011;46415;47.536;19.066;2024-01-15T00:49:56;43.47;;;22.65;;
60582;SDS011;46415;47.536;19.066;2024-01-15T00:52:59;40.47;;;21.52;;
60582;SDS011;46415;47.536;19.066;2024-01-15T00:56:01;39.75;;;21.23;;
60582;SDS011;46415;47.536;19.066;2024-01-15T00:59:06;42.13;;;22.15;;
60582;SDS011;46415;47.536;19.066;2024-01-15T01:02:08;43.72;;;22.20;;
60582;SDS011;46415;47.536;19.066;2024-01-15T01:05:12;43.92;;;22.13;;
60582;SDS011;46415;47.536;19.066;2024-01-15T01:08:15;43.47;;;22.33;;
60582;SDS011;46415;47.536;19.066;2024-01-15T01:11:18;41.37;;;22.58;;
60582;SDS011;46415;47.536;19.066;2024-01-15T01:14:21;43.15;;;23.15;;
60582;SDS011;46415;47.536;19.066;2024-01-15T01:17:24;42.72;;;22.50;;
60582;SDS011;46415;47.536;19.066;2024-01-15T01:20:28;42.22;;;22.30;;
60582;SDS011;46415;47.536;19.066;2024-01-15T01:23:31;41.33;;;21.30;;
60582;SDS011;46415;47.536;19.066;2024-01-15T01:26:33;39.13;;;22.30;;
60582;SDS011;46415;47.536;19.066;2024-01-15T01:29:36;43.50;;;21.92;;
60582;SDS011;46415;47.536;19.066;2024-01-15T01:32:39;43.35;;;23.52;;
60582;SDS011;46415;47.536;19.066;2024-01-15T01:35:42;39.70;;;21.30;;
60582;SDS011;46415;47.536;19.066;2024-01-15T01:38:46;42.50;;;22.80;;
60582;SDS011;46415;47.536;19.066;2024-01-15T01:41:49;43.50;;;23.87;;
60582;SDS011;46415;47.536;19.066;2024-01-15T01:44:52;42.35;;;23.30;;
60582;SDS011;46415;47.536;19.066;2024-01-15T01:47:55;43.35;;;22.73;;
60582;SDS011;46415;47.536;19.066;2024-01-15T01:50:58;42.10;;;21.65;;
60582;SDS011;46415;47.536;19.066;2024-01-15T01:54:03;42.55;;;21.80;;
60582;SDS011;46415;47.536;19.066;2024-01-15T01:57:07;42.53;;;22.58;;
60582;SDS011;46415;47.536;19.066;2024-01-15T02:00:11;47.08;;;23.12;;
60582;SDS011;46415;47.536;19.066;2024-01-15T02:03:14;40.20;;;23.50;;
60582;SDS011;46415;47.536;19.066;2024-01-15T02:06:18;41.20;;;21.80;;
60582;SDS011;46415;47.536;19.066;2024-01-15T02:09:21;45.42;;;23.90;;
60582;SDS011;46415;47.536;19.066;2024-01-15T02:12:24;42.75;;;22.55;;
60582;SDS011;46415;47.536;19.066;2024-01-15T02:15:27;39.25;;;22.17;;
60582;SDS011;46415;47.536;19.066;2024-01-15T02:18:38;46.78;;;22.52;;
60582;SDS011;46415;47.536;19.066;2024-01-15T02:21:43;42.05;;;22.40;;
60582;SDS011;46415;47.536;19.066;2024-01-15T02:24:46;46.33;;;23.25;;
60582;SDS011;46415;47.536;19.066;2024-01-15T02:27:49;40.50;;;23.50;;
60582;SDS011;46415;47.536;19.066;2024-01-15T02:30:52;46.30;;;23.10;;
60582;SDS011;46415;47.536;19.066;2024-01-15T02:33:56;44.90;;;23.50;;
60582;SDS011;46415;47.536;19.066;2024-01-15T02:37:01;45.08;;;23.10;;
60582;SDS011;46415;47.536;19.066;2024-01-15T02:40:05;46.17;;;23.58;;
60582;SDS011;46415;47.536;19.066;2024-01-15T02:43:08;49.63;;;24.27;;
60582;SDS011;46415;47.536;19.066;2024-01-15T02:46:11;44.78;;;23.60;;
60582;SDS011;46415;47.536;19.066;2024-01-15T02:49:14;47.85;;;24.45;;
60582;SDS011;46415;47.536;19.066;2024-01-15T02:52:17;46.67;;;23.20;;
60582;SDS011;46415;47.536;19.066;2024-01-15T02:55:20;45.35;;;23.30;;
60582;SDS011;46415;47.536;19.066;2024-01-15T02:58:24;42.13;;;23.50;;
60582;SDS011;46415;47.536;19.066;2024-01-15T03:01:26;40.10;;;21.20;;
60582;SDS011;46415;47.536;19.066;2024-01-15T03:04:29;42.33;;;22.05;;
60582;SDS011;46415;47.536;19.066;2024-01-15T03:07:32;41.35;;;21.80;;
60582;SDS011;46415;47.536;19.066;2024-01-15T03:10:36;42.50;;;22.87;;
60582;SDS011;46415;47.536;19.066;2024-01-15T03:13:39;41.88;;;21.37;;
60582;SDS011;46415;47.536;19.066;2024-01-15T03:16:42;44.25;;;22.62;;
60582;SDS011;46415;47.536;19.066;2024-01-15T03:19:45;44.78;;;23.55;;
60582;SDS011;46415;47.536;19.066;2024-01-15T03:22:48;42.03;;;22.37;;
60582;SDS011;46415;47.536;19.066;2024-01-15T03:25:51;47.72;;;22.73;;
60582;SDS011;46415;47.536;19.066;2024-01-15T03:28:54;45.88;;;23.92;;
60582;SDS011;46415;47.536;19.066;2024-01-15T03:31:57;46.92;;;23.45;;
60582;SDS011;46415;47.536;19.066;2024-01-15T03:35:00;48.30;;;25.27;;
60582;SDS011;46415;47.536;19.066;2024-01-15T03:38:03;48.08;;;24.27;;
60582;SDS011;46415;47.536;19.066;2024-01-15T03:41:06;53.15;;;25.50;;
60582;SDS011;46415;47.536;19.066;2024-01-15T03:44:09;50.28;;;25.25;;
60582;SDS011;46415;47.536;19.066;2024-01-15T03:47:12;50.92;;;25.83;;
60582;SDS011;46415;47.536;19.066;2024-01-15T03:50:15;57.45;;;27.13;;
60582;SDS011;46415;47.536;19.066;2024-01-15T03:53:18;46.10;;;24.48;;
60582;SDS011;46415;47.536;19.066;2024-01-15T03:56:21;49.67;;;25.10;;
60582;SDS011;46415;47.536;19.066;2024-01-15T03:59:24;50.85;;;24.67;;
60582;SDS011;46415;47.536;19.066;2024-01-15T04:02:27;51.08;;;25.75;;
60582;SDS011;46415;47.536;19.066;2024-01-15T04:05:30;48.17;;;24.25;;
60582;SDS011;46415;47.536;19.066;2024-01-15T04:08:33;49.90;;;25.27;;
60582;SDS011;46415;47.536;19.066;2024-01-15T04:11:36;55.05;;;25.70;;
60582;SDS011;46415;47.536;19.066;2024-01-15T04:14:39;52.62;;;25.75;;
60582;SDS011;46415;47.536;19.066;2024-01-15T04:17:42;50.50;;;24.37;;
60582;SDS011;46415;47.536;19.066;2024-01-15T04:20:45;53.45;;;25.52;;
60582;SDS011;46415;47.536;19.066;2024-01-15T04:23:48;50.85;;;25.37;;
60582;SDS011;46415;47.536;19.066;2024-01-15T04:26:50;54.85;;;25.95;;
60582;SDS011;46415;47.536;19.066;2024-01-15T04:29:54;49.80;;;24.20;;
60582;SDS011;46415;47.536;19.066;2024-01-15T04:32:57;49.97;;;25.23;;
60582;SDS011;46415;47.536;19.066;2024-01-15T04:36:03;48.10;;;23.87;;
60582;SDS011;46415;47.536;19.066;2024-01-15T04:39:08;55.15;;;26.58;;
60582;SDS011;46415;47.536;19.066;2024-01-15T04:42:11;52.35;;;24.75;;
60582;SDS011;46415;47.536;19.066;2024-01-15T04:45:14;54.70;;;26.95;;
60582;SDS011;46415;47.536;19.066;2024-01-15T04:48:17;53.15;;;25.83;;
60582;SDS011;46415;47.536;19.066;2024-01-15T04:51:20;54.80;;;26.45;;
60582;SDS011;46415;47.536;19.066;2024-01-15T04:54:23;57.78;;;26.40;;
60582;SDS011;46415;47.536;19.066;2024-01-15T04:57:26;51.83;;;26.15;;
60582;SDS011;46415;47.536;19.066;2024-01-15T05:00:29;50.55;;;25.83;;
60582;SDS011;46415;47.536;19.066;2024-01-15T05:03:31;55.30;;;26.87;;
60582;SDS011;46415;47.536;19.066;2024-01-15T05:06:34;54.13;;;27.77;;
60582;SDS011;46415;47.536;19.066;2024-01-15T05:09:37;56.00;;;28.30;;
60582;SDS011;46415;47.536;19.066;2024-01-15T05:12:40;58.08;;;25.85;;
60582;SDS011;46415;47.536;19.066;2024-01-15T05:15:43;57.20;;;26.48;;
60582;SDS011;46415;47.536;19.066;2024-01-15T05:18:46;56.58;;;25.35;;
60582;SDS011;46415;47.536;19.066;2024-01-15T05:21:50;55.90;;;27.52;;
60582;SDS011;46415;47.536;19.066;2024-01-15T05:24:53;62.62;;;28.12;;
60582;SDS011;46415;47.536;19.066;2024-01-15T05:27:56;59.90;;;27.52;;
60582;SDS011;46415;47.536;19.066;2024-01-15T05:30:59;56.25;;;27.70;;
60582;SDS011;46415;47.536;19.066;2024-01-15T05:34:02;56.70;;;27.50;;
60582;SDS011;46415;47.536;19.066;2024-01-15T05:37:05;52.62;;;27.23;;
60582;SDS011;46415;47.536;19.066;2024-01-15T05:40:08;53.90;;;26.27;;
60582;SDS011;46415;47.536;19.066;2024-01-15T05:43:12;52.15;;;25.77;;
60582;SDS011;46415;47.536;19.066;2024-01-15T05:46:15;57.15;;;26.58;;
60582;SDS011;46415;47.536;19.066;2024-01-15T05:49:18;53.47;;;27.10;;
60582;SDS011;46415;47.536;19.066;2024-01-15T05:52:21;55.90;;;27.77;;
60582;SDS011;46415;47.536;19.066;2024-01-15T05:55:24;51.70;;;25.17;;
60582;SDS011;46415;47.536;19.066;2024-01-15T05:58:27;52.70;;;27.17;;
60582;SDS011;46415;47.536;19.066;2024-01-15T06:01:32;53.63;;;27.58;;
60582;SDS011;46415;47.536;19.066;2024-01-15T06:04:35;55.50;;;26.25;;
60582;SDS011;46415;47.536;19.066;2024-01-15T06:07:38;54.38;;;28.00;;
60582;SDS011;46415;47.536;19.066;2024-01-15T06:10:41;54.67;;;26.27;;
60582;SDS011;46415;47.536;19.066;2024-01-15T06:13:43;58.40;;;28.45;;
60582;SDS011;46415;47.536;19.066;2024-01-15T06:16:46;55.65;;;28.92;;
60582;SDS011;46415;47.536;19.066;2024-01-15T06:19:49;56.30;;;28.45;;
60582;SDS011;46415;47.536;19.066;2024-01-15T06:22:52;55.67;;;26.30;;
60582;SDS011;46415;47.536;19.066;2024-01-15T06:25:55;59.15;;;27.77;;
60582;SDS011;46415;47.536;19.066;2024-01-15T06:28:58;56.58;;;26.50;;
60582;SDS011;46415;47.536;19.066;2024-01-15T06:32:01;51.53;;;26.75;;
60582;SDS011;46415;47.536;19.066;2024-01-15T06:35:04;52.60;;;26.92;;
60582;SDS011;46415;47.536;19.066;2024-01-15T06:38:07;55.55;;;26.77;;
60582;SDS011;46415;47.536;19.066;2024-01-15T06:41:10;60.88;;;27.55;;
60582;SDS011;46415;47.536;19.066;2024-01-15T06:44:13;53.90;;;26.90;;
60582;SDS011;46415;47.536;19.066;2024-01-15T06:47:16;55.15;;;28.58;;
60582;SDS011;46415;47.536;19.066;2024-01-15T06:50:19;50.05;;;25.62;;
60582;SDS011;46415;47.536;19.066;2024-01-15T06:53:22;52.75;;;26.25;;
60582;SDS011;46415;47.536;19.066;2024-01-15T06:56:25;55.97;;;27.17;;
60582;SDS011;46415;47.536;19.066;2024-01-15T06:59:28;53.75;;;28.25;;
60582;SDS011;46415;47.536;19.066;2024-01-15T07:02:31;53.15;;;27.65;;
60582;SDS011;46415;47.536;19.066;2024-01-15T07:05:34;58.58;;;27.00;;
60582;SDS011;46415;47.536;19.066;2024-01-15T07:08:38;49.45;;;25.52;;
60582;SDS011;46415;47.536;19.066;2024-01-15T07:11:45;54.20;;;26.52;;
60582;SDS011;46415;47.536;19.066;2024-01-15T07:14:49;48.00;;;24.52;;
60582;SDS011;46415;47.536;19.066;2024-01-15T07:17:52;51.80;;;25.62;;
60582;SDS011;46415;47.536;19.066;2024-01-15T07:20:55;50.17;;;24.80;;
60582;SDS011;46415;47.536;19.066;2024-01-15T07:23:59;44.90;;;24.02;;
60582;SDS011;46415;47.536;19.066;2024-01-15T07:27:01;51.67;;;25.67;;
60582;SDS011;46415;47.536;19.066;2024-01-15T07:30:07;55.40;;;25.60;;
60582;SDS011;46415;47.536;19.066;2024-01-15T07:33:11;58.78;;;29.05;;
60582;SDS011;46415;47.536;19.066;2024-01-15T07:36:15;54.42;;;29.20;;
60582;SDS011;46415;47.536;19.066;2024-01-15T07:39:18;65.40;;;29.80;;
60582;SDS011;46415;47.536;19.066;2024-01-15T07:42:21;51.55;;;27.37;;
60582;SDS011;46415;47.536;19.066;2024-01-15T07:45:24;55.03;;;27.48;;
60582;SDS011;46415;47.536;19.066;2024-01-15T07:48:27;54.45;;;26.95;;
60582;SDS011;46415;47.536;19.066;2024-01-15T07:51:30;48.65;;;25.48;;
60582;SDS011;46415;47.536;19.066;2024-01-15T07:54:33;54.50;;;27.87;;
60582;SDS011;46415;47.536;19.066;2024-01-15T07:57:36;57.30;;;28.98;;
60582;SDS011;46415;47.536;19.066;2024-01-15T08:00:39;53.38;;;27.08;;
60582;SDS011;46415;47.536;19.066;2024-01-15T08:03:42;55.58;;;28.27;;
60582;SDS011;46415;47.536;19.066;2024-01-15T08:06:45;53.72;;;28.80;;
60582;SDS011;46415;47.536;19.066;2024-01-15T08:09:48;51.20;;;26.37;;
60582;SDS011;46415;47.536;19.066;2024-01-15T08:12:51;44.35;;;22.52;;
60582;SDS011;46415;47.536;19.066;2024-01-15T08:15:54;34.70;;;18.85;;
60582;SDS011;46415;47.536;19.066;2024-01-15T08:18:57;36.08;;;18.30;;
60582;SDS011;46415;47.536;19.066;2024-01-15T08:22:01;32.72;;;16.67;;
60582;SDS011;46415;47.536;19.066;2024-01-15T08:25:04;27.15;;;14.63;;
60582;SDS011;46415;47.536;19.066;2024-01-15T08:28:07;27.37;;;14.25;;
60582;SDS011;46415;47.536;19.066;2024-01-15T08:31:11;26.70;;;14.20;;
60582;SDS011;46415;47.536;19.066;2024-01-15T08:34:15;24.02;;;13.27;;
60582;SDS011;46415;47.536;19.066;2024-01-15T08:37:18;22.33;;;13.25;;
60582;SDS011;46415;47.536;19.066;2024-01-15T08:40:21;27.00;;;13.57;;
60582;SDS011;46415;47.536;19.066;2024-01-15T08:43:24;25.27;;;13.70;;
60582;SDS011;46415;47.536;19.066;2024-01-15T08:46:27;26.83;;;13.85;;
60582;SDS011;46415;47.536;19.066;2024-01-15T08:49:30;27.83;;;14.25;;
60582;SDS011;46415;47.536;19.066;2024-01-15T08:52:33;26.33;;;13.95;;
60582;SDS011;46415;47.536;19.066;2024-01-15T08:55:36;21.30;;;12.18;;
60582;SDS011;46415;47.536;19.066;2024-01-15T08:58:40;25.15;;;13.35;;
60582;SDS011;46415;47.536;19.066;2024-01-15T09:01:42;25.02;;;13.38;;
60582;SDS011;46415;47.536;19.066;2024-01-15T09:04:46;21.92;;;12.65;;
60582;SDS011;46415;47.536;19.066;2024-01-15T09:07:48;24.80;;;13.38;;
60582;SDS011;46415;47.536;19.066;2024-01-15T09:10:54;21.85;;;12.57;;
60582;SDS011;46415;47.536;19.066;2024-01-15T09:13:57;20.40;;;11.52;;
60582;SDS011;46415;47.536;19.066;2024-01-15T09:16:59;22.62;;;12.37;;
60582;SDS011;46415;47.536;19.066;2024-01-15T09:20:02;18.05;;;11.12;;
60582;SDS011;46415;47.536;19.066;2024-01-15T09:23:08;19.75;;;10.95;;
60582;SDS011;46415;47.536;19.066;2024-01-15T09:26:11;18.00;;;10.27;;
60582;SDS011;46415;47.536;19.066;2024-01-15T09:29:14;20.02;;;10.98;;
60582;SDS011;46415;47.536;19.066;2024-01-15T09:32:20;18.85;;;10.65;;
60582;SDS011;46415;47.536;19.066;2024-01-15T09:35:23;20.48;;;10.50;;
60582;SDS011;46415;47.536;19.066;2024-01-15T09:38:26;18.58;;;9.90;;
60582;SDS011;46415;47.536;19.066;2024-01-15T09:41:29;17.42;;;9.52;;
60582;SDS011;46415;47.536;19.066;2024-01-15T09:44:32;18.15;;;9.45;;
60582;SDS011;46415;47.536;19.066;2024-01-15T09:47:36;16.42;;;9.30;;
60582;SDS011;46415;47.536;19.066;2024-01-15T09:50:45;16.50;;;9.35;;
60582;SDS011;46415;47.536;19.066;2024-01-15T09:53:48;16.42;;;9.82;;
60582;SDS011;46415;47.536;19.066;2024-01-15T09:56:53;14.13;;;8.20;;
60582;SDS011;46415;47.536;19.066;2024-01-15T09:59:58;15.32;;;8.43;;
60582;SDS011;46415;47.536;19.066;2024-01-15T10:03:07;13.23;;;7.87;;
60582;SDS011;46415;47.536;19.066;2024-01-15T10:06:10;14.35;;;7.50;;
60582;SDS011;46415;47.536;19.066;2024-01-15T10:09:21;13.50;;;7.25;;
60582;SDS011;46415;47.536;19.066;2024-01-15T10:12:24;14.13;;;7.87;;
60582;SDS011;46415;47.536;19.066;2024-01-15T10:15:33;14.82;;;8.45;;
60582;SDS011;46415;47.536;19.066;2024-01-15T10:18:37;15.10;;;7.82;;
60582;SDS011;46415;47.536;19.066;2024-01-15T10:21:42;13.35;;;7.15;;
60582;SDS011;46415;47.536;19.066;2024-01-15T10:24:45;11.98;;;6.32;;
60582;SDS011;46415;47.536;19.066;2024-01-15T10:28:00;14.52;;;6.97;;
60582;SDS011;46415;47.536;19.066;2024-01-15T10:31:05;11.52;;;6.55;;
60582;SDS011;46415;47.536;19.066;2024-01-15T10:34:11;11.73;;;6.60;;
60582;SDS011;46415;47.536;19.066;2024-01-15T10:37:15;11.35;;;6.90;;
60582;SDS011;46415;47.536;19.066;2024-01-15T10:40:18;10.10;;;6.30;;
60582;SDS011;46415;47.536;19.066;2024-01-15T10:43:24;11.23;;;6.10;;
60582;SDS011;46415;47.536;19.066;2024-01-15T10:46:31;10.45;;;6.28;;
60582;SDS011;46415;47.536;19.066;2024-01-15T10:49:36;13.02;;;6.55;;
60582;SDS011;46415;47.536;19.066;2024-01-15T10:52:39;10.40;;;6.28;;
60582;SDS011;46415;47.536;19.066;2024-01-15T10:55:43;8.98;;;5.95;;
60582;SDS011;46415;47.536;19.066;2024-01-15T10:58:49;10.52;;;5.85;;
60582;SDS011;46415;47.536;19.066;2024-01-15T11:01:52;12.25;;;5.95;;
60582;SDS011;46415;47.536;19.066;2024-01-15T11:04:58;14.93;;;6.57;;
60582;SDS011;46415;47.536;19.066;2024-01-15T11:08:01;9.77;;;5.80;;
60582;SDS011;46415;47.536;19.066;2024-01-15T11:11:04;8.48;;;5.25;;
60582;SDS011;46415;47.536;19.066;2024-01-15T11:14:07;11.73;;;5.75;;
60582;SDS011;46415;47.536;19.066;2024-01-15T11:17:11;7.87;;;5.43;;
60582;SDS011;46415;47.536;19.066;2024-01-15T11:20:15;7.50;;;4.70;;
60582;SDS011;46415;47.536;19.066;2024-01-15T11:26:55;8.05;;;4.53;;
60582;SDS011;46415;47.536;19.066;2024-01-15T11:30:03;8.23;;;4.87;;
60582;SDS011;46415;47.536;19.066;2024-01-15T11:33:06;7.20;;;4.80;;
60582;SDS011;46415;47.536;19.066;2024-01-15T11:39:53;8.23;;;4.72;;
60582;SDS011;46415;47.536;19.066;2024-01-15T11:42:57;7.65;;;4.53;;
60582;SDS011;46415;47.536;19.066;2024-01-15T11:46:01;6.43;;;3.87;;
60582;SDS011;46415;47.536;19.066;2024-01-15T11:49:06;7.85;;;4.22;;
60582;SDS011;46415;47.536;19.066;2024-01-15T11:58:33;9.82;;;4.75;;
60582;SDS011;46415;47.536;19.066;2024-01-15T12:01:38;8.50;;;4.53;;
60582;SDS011;46415;47.536;19.066;2024-01-15T12:04:42;8.80;;;4.22;;
60582;SDS011;46415;47.536;19.066;2024-01-15T12:07:45;6.15;;;3.75;;
60582;SDS011;46415;47.536;19.066;2024-01-15T12:10:53;8.67;;;4.00;;
60582;SDS011;46415;47.536;19.066;2024-01-15T12:13:55;6.22;;;3.87;;
60582;SDS011;46415;47.536;19.066;2024-01-15T12:17:00;9.07;;;4.20;;
60582;SDS011;46415;47.536;19.066;2024-01-15T12:20:07;7.12;;;4.30;;
60582;SDS011;46415;47.536;19.066;2024-01-15T12:23:10;7.28;;;4.30;;
60582;SDS011;46415;47.536;19.066;2024-01-15T12:26:13;7.32;;;4.70;;
60582;SDS011;46415;47.536;19.066;2024-01-15T12:29:17;7.40;;;4.05;;
60582;SDS011;46415;47.536;19.066;2024-01-15T12:32:20;8.18;;;4.47;;
60582;SDS011;46415;47.536;19.066;2024-01-15T12:35:24;7.07;;;4.03;;
60582;SDS011;46415;47.536;19.066;2024-01-15T12:38:30;10.57;;;4.28;;
60582;SDS011;46415;47.536;19.066;2024-01-15T12:41:34;7.82;;;4.43;;
60582;SDS011;46415;47.536;19.066;2024-01-15T12:44:38;7.28;;;4.05;;
60582;SDS011;46415;47.536;19.066;2024-01-15T12:47:42;6.15;;;4.00;;
60582;SDS011;46415;47.536;19.066;2024-01-15T12:50:45;6.72;;;4.22;;
60582;SDS011;46415;47.536;19.066;2024-01-15T12:53:48;8.25;;;4.60;;
60582;SDS011;46415;47.536;19.066;2024-01-15T12:56:51;5.97;;;4.10;;
60582;SDS011;46415;47.536;19.066;2024-01-15T12:59:55;7.35;;;3.62;;
60582;SDS011;46415;47.536;19.066;2024-01-15T13:02:58;5.43;;;3.97;;
60582;SDS011;46415;47.536;19.066;2024-01-15T13:06:03;7.93;;;4.47;;
60582;SDS011;46415;47.536;19.066;2024-01-15T13:09:06;5.78;;;3.83;;
60582;SDS011;46415;47.536;19.066;2024-01-15T13:12:09;7.18;;;4.00;;
60582;SDS011;46415;47.536;19.066;2024-01-15T13:15:14;6.62;;;4.15;;
60582;SDS011;46415;47.536;19.066;2024-01-15T13:18:17;5.85;;;3.53;;
60582;SDS011;46415;47.536;19.066;2024-01-15T13:21:21;5.87;;;3.60;;
60582;SDS011;46415;47.536;19.066;2024-01-15T13:24:24;5.50;;;3.67;;
60582;SDS011;46415;47.536;19.066;2024-01-15T13:27:27;7.85;;;4.30;;
60582;SDS011;46415;47.536;19.066;2024-01-15T13:30:31;6.78;;;3.97;;
60582;SDS011;46415;47.536;19.066;2024-01-15T13:33:34;5.57;;;3.90;;
60582;SDS011;46415;47.536;19.066;2024-01-15T13:36:37;5.37;;;3.97;;
60582;SDS011;46415;47.536;19.066;2024-01-15T13:39:41;6.25;;;4.15;;
60582;SDS011;46415;47.536;19.066;2024-01-15T13:42:44;5.15;;;3.67;;
60582;SDS011;46415;47.536;19.066;2024-01-15T13:45:48;5.75;;;3.40;;
60582;SDS011;46415;47.536;19.066;2024-01-15T13:48:52;5.12;;;3.87;;
60582;SDS011;46415;47.536;19.066;2024-01-15T13:51:55;6.62;;;3.75;;
60582;SDS011;46415;47.536;19.066;2024-01-15T13:54:59;5.60;;;3.28;;
60582;SDS011;46415;47.536;19.066;2024-01-15T13:58:04;6.40;;;3.47;;
60582;SDS011;46415;47.536;19.066;2024-01-15T14:01:08;6.20;;;4.03;;
60582;SDS011;46415;47.536;19.066;2024-01-15T14:04:13;7.32;;;3.47;;
60582;SDS011;46415;47.536;19.066;2024-01-15T14:07:16;7.20;;;4.20;;
60582;SDS011;46415;47.536;19.066;2024-01-15T14:10:19;7.85;;;4.20;;
60582;SDS011;46415;47.536;19.066;2024-01-15T14:13:22;5.20;;;3.47;;
60582;SDS011;46415;47.536;19.066;2024-01-15T14:16:26;6.03;;;3.58;;
60582;SDS011;46415;47.536;19.066;2024-01-15T14:19:28;7.30;;;3.83;;
60582;SDS011;46415;47.536;19.066;2024-01-15T14:22:31;6.00;;;3.60;;
60582;SDS011;46415;47.536;19.066;2024-01-15T14:25:35;7.68;;;3.80;;
60582;SDS011;46415;47.536;19.066;2024-01-15T14:28:38;5.10;;;3.60;;
60582;SDS011;46415;47.536;19.066;2024-01-15T14:31:41;6.57;;;3.72;;
60582;SDS011;46415;47.536;19.066;2024-01-15T14:34:45;7.05;;;3.70;;
60582;SDS011;46415;47.536;19.066;2024-01-15T14:37:47;6.20;;;3.87;;
60582;SDS011;46415;47.536;19.066;2024-01-15T14:40:51;5.43;;;3.80;;
60582;SDS011;46415;47.536;19.066;2024-01-15T14:43:54;6.32;;;4.37;;
60582;SDS011;46415;47.536;19.066;2024-01-15T14:46:57;6.05;;;3.58;;
60582;SDS011;46415;47.536;19.066;2024-01-15T14:50:01;5.22;;;3.45;;
60582;SDS011;46415;47.536;19.066;2024-01-15T14:53:04;4.78;;;3.85;;
60582;SDS011;46415;47.536;19.066;2024-01-15T14:56:07;4.28;;;3.50;;
60582;SDS011;46415;47.536;19.066;2024-01-15T14:59:10;6.62;;;3.75;;
60582;SDS011;46415;47.536;19.066;2024-01-15T15:02:13;5.22;;;3.20;;
60582;SDS011;46415;47.536;19.066;2024-01-15T15:05:17;7.18;;;3.40;;
60582;SDS011;46415;47.536;19.066;2024-01-15T15:08:20;5.35;;;3.97;;
60582;SDS011;46415;47.536;19.066;2024-01-15T15:11:23;5.50;;;3.45;;
60582;SDS011;46415;47.536;19.066;2024-01-15T15:14:26;7.20;;;4.07;;
60582;SDS011;46415;47.536;19.066;2024-01-15T15:17:28;5.68;;;3.50;;
60582;SDS011;46415;47.536;19.066;2024-01-15T15:20:32;4.05;;;3.20;;
60582;SDS011;46415;47.536;19.066;2024-01-15T15:23:35;5.90;;;3.33;;
60582;SDS011;46415;47.536;19.066;2024-01-15T15:26:38;5.25;;;3.58;;
60582;SDS011;46415;47.536;19.066;2024-01-15T15:29:41;5.53;;;3.50;;
60582;SDS011;46415;47.536;19.066;2024-01-15T15:32:44;4.60;;;3.50;;
60582;SDS011;46415;47.536;19.066;2024-01-15T15:35:47;6.30;;;3.78;;
60582;SDS011;46415;47.536;19.066;2024-01-15T15:38:50;4.70;;;3.62;;
60582;SDS011;46415;47.536;19.066;2024-01-15T15:41:54;6.10;;;3.53;;
60582;SDS011;46415;47.536;19.066;2024-01-15T15:44:59;4.45;;;3.53;;
60582;SDS011;46415;47.536;19.066;2024-01-15T15:48:04;10.35;;;4.20;;
60582;SDS011;46415;47.536;19.066;2024-01-15T15:51:07;7.10;;;3.75;;
60582;SDS011;46415;47.536;19.066;2024-01-15T15:54:11;5.82;;;3.87;;
60582;SDS011;46415;47.536;19.066;2024-01-15T15:57:14;6.28;;;4.05;;
60582;SDS011;46415;47.536;19.066;2024-01-15T16:00:17;6.78;;;3.87;;
60582;SDS011;46415;47.536;19.066;2024-01-15T16:03:21;7.75;;;4.10;;
60582;SDS011;46415;47.536;19.066;2024-01-15T16:06:24;6.60;;;4.32;;
60582;SDS011;46415;47.536;19.066;2024-01-15T16:09:27;7.68;;;4.10;;
60582;SDS011;46415;47.536;19.066;2024-01-15T16:12:30;6.57;;;4.20;;
60582;SDS011;46415;47.536;19.066;2024-01-15T16:15:33;6.65;;;4.00;;
60582;SDS011;46415;47.536;19.066;2024-01-15T16:18:37;7.20;;;4.03;;
60582;SDS011;46415;47.536;19.066;2024-01-15T16:22:01;8.15;;;4.25;;
60582;SDS011;46415;47.536;19.066;2024-01-15T16:25:23;6.87;;;4.43;;
60582;SDS011;46415;47.536;19.066;2024-01-15T16:28:27;7.53;;;4.32;;
60582;SDS011;46415;47.536;19.066;2024-01-15T16:31:30;6.90;;;4.43;;
60582;SDS011;46415;47.536;19.066;2024-01-15T16:34:34;6.72;;;4.12;;
60582;SDS011;46415;47.536;19.066;2024-01-15T16:37:36;7.12;;;4.37;;
60582;SDS011;46415;47.536;19.066;2024-01-15T16:40:39;6.15;;;4.07;;
60582;SDS011;46415;47.536;19.066;2024-01-15T16:43:42;6.93;;;4.10;;
60582;SDS011;46415;47.536;19.066;2024-01-15T16:46:45;7.82;;;4.10;;
60582;SDS011;46415;47.536;19.066;2024-01-15T16:49:48;6.62;;;4.35;;
60582;SDS011;46415;47.536;19.066;2024-01-15T16:52:51;6.05;;;3.65;;
60582;SDS011;46415;47.536;19.066;2024-01-15T16:55:54;7.47;;;4.25;;
60582;SDS011;46415;47.536;19.066;2024-01-15T16:58:57;7.12;;;3.72;;
60582;SDS011;46415;47.536;19.066;2024-01-15T17:02:00;4.43;;;3.72;;
60582;SDS011;46415;47.536;19.066;2024-01-15T17:05:03;6.28;;;3.55;;
60582;SDS011;46415;47.536;19.066;2024-01-15T17:08:07;5.28;;;3.10;;
60582;SDS011;46415;47.536;19.066;2024-01-15T17:11:10;4.18;;;3.50;;
60582;SDS011;46415;47.536;19.066;2024-01-15T17:14:13;5.80;;;3.45;;
60582;SDS011;46415;47.536;19.066;2024-01-15T17:17:16;7.90;;;3.40;;
60582;SDS011;46415;47.536;19.066;2024-01-15T17:20:19;7.93;;;3.67;;
60582;SDS011;46415;47.536;19.066;2024-01-15T17:23:23;7.03;;;3.47;;
60582;SDS011;46415;47.536;19.066;2024-01-15T17:26:26;5.70;;;3.47;;
60582;SDS011;46415;47.536;19.066;2024-01-15T17:29:29;5.68;;;3.30;;
60582;SDS011;46415;47.536;19.066;2024-01-15T17:32:31;5.32;;;3.47;;
60582;SDS011;46415;47.536;19.066;2024-01-15T17:35:34;4.62;;;3.30;;
60582;SDS011;46415;47.536;19.066;2024-01-15T17:38:37;5.82;;;3.45;;
60582;SDS011;46415;47.536;19.066;2024-01-15T17:41:40;6.32;;;3.30;;
60582;SDS011;46415;47.536;19.066;2024-01-15T17:44:44;7.70;;;3.30;;
60582;SDS011;46415;47.536;19.066;2024-01-15T17:47:47;4.85;;;3.65;;
60582;SDS011;46415;47.536;19.066;2024-01-15T17:50:52;7.25;;;4.22;;
60582;SDS011;46415;47.536;19.066;2024-01-15T17:53:55;5.55;;;3.45;;
60582;SDS011;46415;47.536;19.066;2024-01-15T17:56:58;7.60;;;3.87;;
60582;SDS011;46415;47.536;19.066;2024-01-15T18:00:02;5.62;;;3.47;;
60582;SDS011;46415;47.536;19.066;2024-01-15T18:03:09;7.65;;;4.22;;